createdAt,value
2018-12-19T00:00:05.502Z,15.5
2018-12-19T00:01:07.941Z,15.6
2018-12-19T00:02:10.088Z,15.4
2018-12-19T00:03:12.520Z,15.5
2018-12-19T00:04:14.939Z,15.5
2018-12-19T00:05:17.377Z,15.4
2018-12-19T00:06:18.980Z,15.5
2018-12-19T00:07:21.420Z,15.5
2018-12-19T00:08:23.850Z,15.6
2018-12-19T00:09:26.032Z,15.7
2018-12-19T00:10:28.459Z,15.3
2018-12-19T00:11:30.614Z,15.4
2018-12-19T00:12:33.053Z,15.4
2018-12-19T00:13:35.202Z,15.7
2018-12-19T00:14:37.628Z,15.5
2018-12-19T00:15:39.513Z,15.6
2018-12-19T00:16:41.939Z,15.5
2018-12-19T00:17:44.085Z,15.6
2018-12-19T00:18:46.236Z,15.6
2018-12-19T00:19:48.673Z,15.6
2018-12-19T00:20:50.558Z,15.5
2018-12-19T00:21:52.974Z,15.7
2018-12-19T00:22:55.141Z,15.6
2018-12-19T00:23:56.991Z,15.5
2018-12-19T00:24:59.423Z,15.5
2018-12-19T00:26:01.600Z,15.4
2018-12-19T00:27:04.020Z,15.5
2018-12-19T00:28:06.177Z,15.4
2018-12-19T00:29:08.328Z,15.4
2018-12-19T00:30:10.750Z,15.5
2018-12-19T00:31:13.169Z,15.3
2018-12-19T00:32:15.313Z,15.4
2018-12-19T00:33:17.462Z,15.5
2018-12-19T00:34:19.891Z,15.6
2018-12-19T00:35:22.051Z,15.7
2018-12-19T00:36:24.481Z,15.6
2018-12-19T00:37:26.351Z,15.7
2018-12-19T00:38:28.778Z,15.6
2018-12-19T00:39:31.224Z,15.6
2018-12-19T00:40:33.650Z,15.6
2018-12-19T00:41:36.088Z,15.7
2018-12-19T00:42:38.510Z,15.8
2018-12-19T00:43:40.934Z,15.7
2018-12-19T00:44:43.092Z,15.7
2018-12-19T00:45:45.519Z,15.7
2018-12-19T00:46:47.958Z,15.8
2018-12-19T00:47:50.390Z,15.8
2018-12-19T00:48:52.813Z,15.7
2018-12-19T00:49:54.967Z,15.7
2018-12-19T00:50:57.120Z,15.8
2018-12-19T00:51:59.281Z,15.7
2018-12-19T00:53:01.439Z,15.7
2018-12-19T00:54:03.857Z,15.7
2018-12-19T00:55:05.990Z,15.8
2018-12-19T00:56:08.137Z,15.8
2018-12-19T00:57:10.569Z,15.8
2018-12-19T00:58:12.725Z,15.7
2018-12-19T00:59:14.858Z,15.8
2018-12-19T01:00:17.278Z,15.8
2018-12-19T01:01:19.690Z,15.8
2018-12-19T01:02:22.115Z,15.8
2018-12-19T01:03:24.553Z,15.8
2018-12-19T01:04:26.683Z,15.8
2018-12-19T01:05:28.831Z,15.9
2018-12-19T01:06:30.692Z,15.8
2018-12-19T01:07:32.564Z,15.8
2018-12-19T01:08:34.988Z,15.7
2018-12-19T01:09:37.428Z,15.7
2018-12-19T01:10:39.571Z,15.8
2018-12-19T01:11:42.005Z,15.8
2018-12-19T01:12:44.433Z,15.9
2018-12-19T01:13:46.587Z,15.9
2018-12-19T01:14:49.015Z,15.8
2018-12-19T01:15:50.874Z,15.8
2018-12-19T01:16:53.291Z,15.8
2018-12-19T01:17:55.723Z,15.8
2018-12-19T01:18:57.836Z,15.9
2018-12-19T01:19:59.991Z,15.8
2018-12-19T01:21:02.424Z,15.8
2018-12-19T01:22:04.582Z,15.8
2018-12-19T01:23:07.002Z,15.7
2018-12-19T01:24:08.859Z,15.8
2018-12-19T01:25:11.307Z,15.8
2018-12-19T01:26:13.729Z,15.9
2018-12-19T01:27:15.901Z,15.9
2018-12-19T01:28:18.330Z,16
2018-12-19T01:29:20.486Z,15.9
2018-12-19T01:30:22.641Z,15.9
2018-12-19T01:31:24.797Z,15.8
2018-12-19T01:32:27.224Z,16
2018-12-19T01:33:29.356Z,15.9
2018-12-19T01:34:31.777Z,15.9
2018-12-19T01:35:33.943Z,15.9
2018-12-19T01:36:36.368Z,16
2018-12-19T01:37:38.795Z,15.8
2018-12-19T01:38:41.236Z,15.9
2018-12-19T01:39:43.662Z,15.9
2018-12-19T01:40:45.798Z,16
2018-12-19T01:41:47.961Z,16
2018-12-19T01:42:50.387Z,15.9
2018-12-19T01:43:52.554Z,15.8
2018-12-19T01:44:54.701Z,15.9
2018-12-19T01:45:57.123Z,16
2018-12-19T01:46:59.549Z,16
2018-12-19T01:48:01.691Z,15.8
2018-12-19T01:49:04.121Z,15.9
2018-12-19T01:50:06.546Z,15.9
2018-12-19T01:51:08.961Z,15.9
2018-12-19T01:52:10.819Z,16
2018-12-19T01:53:12.964Z,15.9
2018-12-19T01:54:15.387Z,16
2018-12-19T01:55:17.557Z,15.8
2018-12-19T01:56:19.702Z,15.9
2018-12-19T01:57:21.827Z,15.8
2018-12-19T01:58:23.697Z,16
2018-12-19T01:59:25.298Z,15.8
2018-12-19T02:00:27.715Z,15.9
2018-12-19T02:01:29.883Z,16
2018-12-19T02:02:32.302Z,15.8
2018-12-19T02:03:34.454Z,15.8
2018-12-19T02:04:36.582Z,15.9
2018-12-19T02:05:39.012Z,16
2018-12-19T02:06:40.887Z,15.9
2018-12-19T02:07:43.033Z,15.8
2018-12-19T02:08:45.162Z,16
2018-12-19T02:09:47.311Z,15.9
2018-12-19T02:10:49.738Z,15.8
2018-12-19T02:11:52.160Z,16
2018-12-19T02:12:54.581Z,16
2018-12-19T02:13:56.451Z,15.8
2018-12-19T02:14:58.876Z,15.9
2018-12-19T02:16:01.068Z,16
2018-12-19T02:17:03.481Z,15.9
2018-12-19T02:18:05.633Z,16.1
2018-12-19T02:19:08.061Z,16.1
2018-12-19T02:20:10.486Z,16.1
2018-12-19T02:21:12.637Z,16
2018-12-19T02:22:15.062Z,16
2018-12-19T02:23:17.500Z,16
2018-12-19T02:24:20.110Z,16
2018-12-19T02:25:22.536Z,16.1
2018-12-19T02:26:24.951Z,16
2018-12-19T02:27:27.372Z,15.9
2018-12-19T02:28:29.801Z,16.1
2018-12-19T02:29:32.231Z,16.1
2018-12-19T02:30:34.381Z,16
2018-12-19T02:31:36.819Z,16.1
2018-12-19T02:32:39.241Z,15.8
2018-12-19T02:33:41.122Z,16.1
2018-12-19T02:34:43.543Z,16.1
2018-12-19T02:35:45.977Z,16
2018-12-19T02:36:48.137Z,15.8
2018-12-19T02:37:50.571Z,15.9
2018-12-19T02:38:52.724Z,16
2018-12-19T02:39:54.874Z,16
2018-12-19T02:40:57.020Z,16
2018-12-19T02:41:59.177Z,16.1
2018-12-19T02:43:01.612Z,16.1
2018-12-19T02:44:03.535Z,16.1
2018-12-19T02:45:05.971Z,16
2018-12-19T02:46:08.401Z,15.9
2018-12-19T02:47:10.813Z,16.1
2018-12-19T02:48:13.237Z,16
2018-12-19T02:49:15.662Z,16
2018-12-19T02:50:17.832Z,15.8
2018-12-19T02:51:19.983Z,16.1
2018-12-19T02:52:21.861Z,16.2
2018-12-19T02:53:23.715Z,16
2018-12-19T02:54:25.869Z,16.1
2018-12-19T02:55:28.023Z,16.1
2018-12-19T02:56:30.441Z,16.1
2018-12-19T02:57:32.883Z,16
2018-12-19T02:58:35.319Z,16.1
2018-12-19T02:59:37.199Z,16.1
2018-12-19T03:00:39.633Z,16.1
2018-12-19T03:01:42.057Z,16.2
2018-12-19T03:02:44.223Z,16
2018-12-19T03:03:46.660Z,15.9
2018-12-19T03:04:48.810Z,16.1
2018-12-19T03:05:51.227Z,16.1
2018-12-19T03:06:53.656Z,16
2018-12-19T03:07:56.072Z,16
2018-12-19T03:08:58.509Z,16.1
2018-12-19T03:10:00.678Z,15.9
2018-12-19T03:11:03.193Z,16.1
2018-12-19T03:12:05.090Z,15.8
2018-12-19T03:13:07.520Z,16
2018-12-19T03:14:09.948Z,16
2018-12-19T03:15:12.381Z,16
2018-12-19T03:16:14.811Z,16.1
2018-12-19T03:17:17.260Z,16.1
2018-12-19T03:18:19.399Z,16.1
2018-12-19T03:19:21.823Z,15.9
2018-12-19T03:20:24.248Z,16.1
2018-12-19T03:21:26.400Z,15.9
2018-12-19T03:22:28.823Z,16.1
2018-12-19T03:23:30.980Z,16.1
2018-12-19T03:24:33.409Z,16.1
2018-12-19T03:25:35.560Z,16.2
2018-12-19T03:26:37.989Z,16
2018-12-19T03:27:40.399Z,16
2018-12-19T03:28:42.547Z,16
2018-12-19T03:29:44.980Z,16.1
2018-12-19T03:30:47.401Z,15.9
2018-12-19T03:31:49.822Z,16.1
2018-12-19T03:32:52.276Z,16.2
2018-12-19T03:33:54.609Z,16.2
2018-12-19T03:34:57.037Z,16.1
2018-12-19T03:36:00.841Z,16.1
2018-12-19T03:37:03.277Z,16.1
2018-12-19T03:38:05.430Z,16
2018-12-19T03:39:07.332Z,16.2
2018-12-19T03:40:09.484Z,16.1
2018-12-19T03:41:11.906Z,16.1
2018-12-19T03:42:13.785Z,16.1
2018-12-19T03:43:15.943Z,16.1
2018-12-19T03:44:18.090Z,16.1
2018-12-19T03:45:20.521Z,16.2
2018-12-19T03:46:22.672Z,16.1
2018-12-19T03:47:25.097Z,15.9
2018-12-19T03:48:27.519Z,16.1
2018-12-19T03:49:29.147Z,16.1
2018-12-19T03:50:31.301Z,16.1
2018-12-19T03:51:33.433Z,16.2
2018-12-19T03:52:35.315Z,16.1
2018-12-19T03:53:37.735Z,16.1
2018-12-19T03:54:39.881Z,16.2
2018-12-19T03:55:42.311Z,16.2
2018-12-19T03:56:44.458Z,16.1
2018-12-19T03:57:46.872Z,16.2
2018-12-19T03:58:49.301Z,16.2
2018-12-19T03:59:51.721Z,16.1
2018-12-19T04:00:53.861Z,16.2
2018-12-19T04:01:56.283Z,16.2
2018-12-19T04:02:58.434Z,16.2
2018-12-19T04:04:00.851Z,16.2
2018-12-19T04:05:02.998Z,16.2
2018-12-19T04:06:05.417Z,16.2
2018-12-19T04:07:07.833Z,16.2
2018-12-19T04:08:10.261Z,16.2
2018-12-19T04:09:12.687Z,16.1
2018-12-19T04:10:14.832Z,16.1
2018-12-19T04:11:17.258Z,16.1
2018-12-19T04:12:19.411Z,16.1
2018-12-19T04:13:21.828Z,16.1
2018-12-19T04:14:23.980Z,16
2018-12-19T04:15:26.402Z,16
2018-12-19T04:16:28.564Z,16.2
2018-12-19T04:17:30.700Z,16.1
2018-12-19T04:18:33.132Z,16.1
2018-12-19T04:19:35.024Z,16.2
2018-12-19T04:20:37.173Z,16.2
2018-12-19T04:21:39.320Z,16
2018-12-19T04:22:41.482Z,16.1
2018-12-19T04:23:43.898Z,16.2
2018-12-19T04:24:46.322Z,16.2
2018-12-19T04:25:48.742Z,16.1
2018-12-19T04:26:51.168Z,16.1
2018-12-19T04:27:53.320Z,16.1
2018-12-19T04:28:55.481Z,16.1
2018-12-19T04:29:57.903Z,16.1
2018-12-19T04:31:00.322Z,16.2
2018-12-19T04:32:02.732Z,16.2
2018-12-19T04:33:04.926Z,16
2018-12-19T04:34:07.371Z,16.1
2018-12-19T04:35:09.807Z,16.1
2018-12-19T04:36:12.216Z,16
2018-12-19T04:37:14.642Z,16
2018-12-19T04:38:16.963Z,16.1
2018-12-19T04:39:19.548Z,16
2018-12-19T04:40:21.746Z,16
2018-12-19T04:41:23.925Z,16
2018-12-19T04:42:25.788Z,16.1
2018-12-19T04:43:28.244Z,15.9
2018-12-19T04:44:30.686Z,16.1
2018-12-19T04:45:33.117Z,16
2018-12-19T04:46:35.565Z,15.9
2018-12-19T04:47:38.002Z,16
2018-12-19T04:48:40.182Z,15.9
2018-12-19T04:49:42.620Z,16.1
2018-12-19T04:50:45.668Z,15.9
2018-12-19T04:51:48.117Z,16.1
2018-12-19T04:52:50.544Z,16
2018-12-19T04:53:52.981Z,15.9
2018-12-19T04:54:55.170Z,15.9
2018-12-19T04:55:57.607Z,15.9
2018-12-19T04:56:59.766Z,16.1
2018-12-19T04:58:02.227Z,15.8
2018-12-19T04:59:04.656Z,15.9
2018-12-19T05:00:06.539Z,15.9
2018-12-19T05:01:08.964Z,15.9
2018-12-19T05:02:11.131Z,16
2018-12-19T05:03:13.565Z,15.9
2018-12-19T05:04:15.716Z,16
2018-12-19T05:05:17.864Z,16
2018-12-19T05:06:20.281Z,16
2018-12-19T05:07:22.713Z,16.1
2018-12-19T05:08:25.131Z,16
2018-12-19T05:09:27.639Z,16
2018-12-19T05:10:30.045Z,15.9
2018-12-19T05:11:32.473Z,15.9
2018-12-19T05:12:34.901Z,16
2018-12-19T05:13:37.079Z,16
2018-12-19T05:14:39.498Z,16
2018-12-19T05:15:41.671Z,15.9
2018-12-19T05:16:44.111Z,16
2018-12-19T05:17:46.255Z,15.9
2018-12-19T05:18:48.447Z,16
2018-12-19T05:19:50.879Z,15.9
2018-12-19T05:20:52.783Z,15.8
2018-12-19T05:21:54.932Z,15.9
2018-12-19T05:22:57.360Z,15.8
2018-12-19T05:23:59.502Z,15.9
2018-12-19T05:25:01.933Z,15.9
2018-12-19T05:26:04.070Z,15.8
2018-12-19T05:27:06.500Z,15.8
2018-12-19T05:28:08.955Z,15.8
2018-12-19T05:29:11.379Z,15.9
2018-12-19T05:30:13.522Z,15.8
2018-12-19T05:31:15.943Z,15.8
2018-12-19T05:32:18.363Z,15.9
2018-12-19T05:33:20.791Z,15.8
2018-12-19T05:34:23.213Z,16
2018-12-19T05:35:25.653Z,16
2018-12-19T05:36:28.089Z,15.9
2018-12-19T05:37:30.509Z,15.9
2018-12-19T05:38:32.671Z,15.9
2018-12-19T05:39:34.287Z,15.9
2018-12-19T05:40:36.714Z,15.9
2018-12-19T05:41:39.142Z,15.8
2018-12-19T05:42:41.564Z,15.8
2018-12-19T05:43:43.983Z,15.9
2018-12-19T05:44:46.133Z,15.8
2018-12-19T05:45:48.553Z,15.8
2018-12-19T05:46:50.985Z,16
2018-12-19T05:47:53.409Z,15.9
2018-12-19T05:48:55.559Z,15.9
2018-12-19T05:49:57.701Z,15.9
2018-12-19T05:51:00.183Z,15.8
2018-12-19T05:52:02.622Z,15.9
2018-12-19T05:53:05.043Z,15.8
2018-12-19T05:54:07.484Z,15.8
2018-12-19T05:55:09.933Z,15.8
2018-12-19T05:56:12.363Z,15.9
2018-12-19T05:57:14.806Z,15.9
2018-12-19T05:58:16.949Z,15.9
2018-12-19T05:59:19.374Z,16
2018-12-19T06:00:21.535Z,15.9
2018-12-19T06:01:23.694Z,16
2018-12-19T06:02:26.124Z,15.9
2018-12-19T06:03:28.564Z,15.9
2018-12-19T06:04:30.713Z,15.8
2018-12-19T06:05:32.871Z,15.9
2018-12-19T06:06:35.063Z,15.8
2018-12-19T06:07:37.250Z,15.8
2018-12-19T06:08:39.671Z,15.8
2018-12-19T06:09:42.097Z,15.9
2018-12-19T06:10:44.237Z,15.8
2018-12-19T06:11:46.662Z,15.9
2018-12-19T06:12:49.079Z,15.7
2018-12-19T06:13:51.254Z,15.8
2018-12-19T06:14:53.675Z,15.8
2018-12-19T06:15:55.825Z,15.8
2018-12-19T06:16:58.250Z,15.8
2018-12-19T06:18:00.142Z,15.9
2018-12-19T06:19:02.573Z,15.8
2018-12-19T06:20:05.004Z,15.9
2018-12-19T06:21:07.163Z,15.8
2018-12-19T06:22:09.633Z,15.8
2018-12-19T06:23:12.061Z,15.8
2018-12-19T06:24:14.189Z,15.8
2018-12-19T06:25:16.613Z,15.8
2018-12-19T06:26:19.039Z,15.8
2018-12-19T06:27:21.191Z,15.8
2018-12-19T06:28:23.781Z,15.8
2018-12-19T06:29:26.299Z,15.8
2018-12-19T06:30:28.498Z,15.9
2018-12-19T06:33:02.142Z,15.8
2018-12-19T06:34:04.314Z,15.8
2018-12-19T06:35:06.743Z,15.8
2018-12-19T06:36:09.164Z,15.8
2018-12-19T06:37:11.328Z,15.7
2018-12-19T06:38:13.783Z,15.8
2018-12-19T06:39:15.931Z,15.8
2018-12-19T06:40:18.369Z,15.8
2018-12-19T06:41:20.255Z,15.7
2018-12-19T06:42:22.399Z,15.9
2018-12-19T06:43:24.821Z,15.8
2018-12-19T06:44:26.981Z,15.8
2018-12-19T06:45:29.134Z,15.8
2018-12-19T06:46:31.604Z,15.8
2018-12-19T06:47:33.772Z,15.7
2018-12-19T06:48:36.211Z,15.8
2018-12-19T06:49:38.353Z,15.8
2018-12-19T06:50:40.776Z,15.8
2018-12-19T06:51:43.202Z,15.8
2018-12-19T06:52:45.344Z,15.8
2018-12-19T06:53:47.776Z,15.8
2018-12-19T06:54:49.918Z,15.8
2018-12-19T06:55:51.812Z,15.7
2018-12-19T06:56:53.959Z,15.8
2018-12-19T06:57:56.110Z,15.8
2018-12-19T06:58:58.008Z,15.8
2018-12-19T07:00:00.168Z,15.8
2018-12-19T07:01:01.769Z,15.8
2018-12-19T07:02:04.253Z,15.8
2018-12-19T07:03:06.690Z,15.8
2018-12-19T07:04:08.571Z,15.8
2018-12-19T07:05:11.001Z,15.7
2018-12-19T07:06:13.155Z,15.8
2018-12-19T07:07:15.316Z,15.7
2018-12-19T07:08:17.485Z,15.8
2018-12-19T07:09:19.918Z,15.8
2018-12-19T07:10:22.070Z,15.7
2018-12-19T07:11:24.499Z,15.8
2018-12-19T07:12:26.640Z,15.8
2018-12-19T07:13:29.069Z,15.7
2018-12-19T07:14:31.502Z,15.8
2018-12-19T07:15:33.675Z,15.7
2018-12-19T07:16:36.121Z,15.8
2018-12-19T07:17:42.315Z,15.8
2018-12-19T07:18:44.183Z,15.8
2018-12-19T07:19:46.062Z,15.7
2018-12-19T07:20:48.221Z,15.7
2018-12-19T07:21:50.663Z,15.8
2018-12-19T07:22:53.091Z,15.8
2018-12-19T07:23:54.689Z,15.8
2018-12-19T07:24:56.826Z,15.8
2018-12-19T07:25:59.252Z,15.7
2018-12-19T07:27:01.407Z,15.8
2018-12-19T07:28:03.601Z,15.8
2018-12-19T07:29:05.754Z,15.8
2018-12-19T07:30:07.348Z,15.7
2018-12-19T07:31:09.770Z,15.8
2018-12-19T07:32:12.201Z,15.8
2018-12-19T07:33:14.090Z,15.8
2018-12-19T07:34:16.256Z,15.8
2018-12-19T07:35:18.413Z,15.7
2018-12-19T07:36:20.547Z,15.8
2018-12-19T07:37:22.709Z,15.8
2018-12-19T07:38:24.882Z,15.8
2018-12-19T07:39:26.749Z,15.7
2018-12-19T07:40:28.633Z,15.8
2018-12-19T07:41:31.070Z,15.8
2018-12-19T07:42:33.492Z,15.8
2018-12-19T07:43:35.673Z,15.8
2018-12-19T07:44:37.841Z,15.8
2018-12-19T07:45:39.722Z,15.7
2018-12-19T07:46:42.151Z,15.8
2018-12-19T07:47:44.581Z,15.8
2018-12-19T07:48:46.191Z,15.7
2018-12-19T07:49:48.352Z,15.8
2018-12-19T07:50:50.802Z,15.7
2018-12-19T07:51:53.229Z,15.7
2018-12-19T07:52:55.697Z,15.8
2018-12-19T07:53:58.152Z,15.7
2018-12-19T07:55:00.324Z,15.8
2018-12-19T07:56:02.481Z,15.7
2018-12-19T07:57:04.630Z,15.7
2018-12-19T07:58:07.059Z,15.7
2018-12-19T07:59:09.204Z,15.8
2018-12-19T08:00:11.641Z,15.8
2018-12-19T08:01:13.778Z,15.7
2018-12-19T08:02:15.941Z,15.7
2018-12-19T08:03:18.374Z,15.7
2018-12-19T08:04:20.792Z,15.7
2018-12-19T08:06:28.193Z,15.8
2018-12-19T08:07:30.081Z,15.8
2018-12-19T08:08:32.510Z,15.7
2018-12-19T08:09:34.672Z,15.7
2018-12-19T08:10:37.118Z,15.7
2018-12-19T08:11:39.262Z,15.8
2018-12-19T08:12:41.119Z,15.7
2018-12-19T08:13:43.281Z,15.6
2018-12-19T08:14:45.764Z,15.8
2018-12-19T08:15:48.212Z,15.7
2018-12-19T08:16:50.650Z,15.7
2018-12-19T08:17:53.089Z,15.7
2018-12-19T08:18:55.516Z,15.7
2018-12-19T08:19:57.657Z,15.7
2018-12-19T08:21:00.127Z,15.7
2018-12-19T08:22:02.549Z,15.7
2018-12-19T08:23:04.971Z,15.7
2018-12-19T08:24:07.387Z,15.7
2018-12-19T08:25:09.547Z,15.6
2018-12-19T08:26:11.721Z,15.7
2018-12-19T08:27:14.147Z,15.7
2018-12-19T08:28:16.565Z,15.7
2018-12-19T08:29:18.991Z,15.8
2018-12-19T08:30:21.131Z,15.7
2018-12-19T08:31:23.559Z,15.8
2018-12-19T08:32:25.453Z,15.6
2018-12-19T08:33:27.613Z,15.8
2018-12-19T08:34:30.029Z,15.6
2018-12-19T08:35:32.183Z,15.8
2018-12-19T08:36:33.788Z,15.7
2018-12-19T08:37:36.221Z,15.6
2018-12-19T08:38:38.650Z,15.7
2018-12-19T08:39:40.808Z,15.7
2018-12-19T08:40:42.702Z,15.7
2018-12-19T08:41:45.134Z,15.7
2018-12-19T08:42:47.010Z,15.7
2018-12-19T08:43:49.450Z,15.6
2018-12-19T08:44:51.616Z,15.7
2018-12-19T08:45:53.787Z,15.6
2018-12-19T08:46:55.939Z,15.5
2018-12-19T08:47:58.102Z,15.6
2018-12-19T08:49:00.531Z,15.7
2018-12-19T08:50:02.955Z,15.6
2018-12-19T08:51:06.540Z,15.6
2018-12-19T08:52:08.426Z,15.7
2018-12-19T08:53:10.865Z,15.7
2018-12-19T08:54:13.300Z,15.7
2018-12-19T08:55:15.732Z,15.7
2018-12-19T08:56:17.912Z,15.7
2018-12-19T08:57:20.134Z,15.6
2018-12-19T08:58:22.558Z,15.6
2018-12-19T08:59:24.720Z,15.5
2018-12-19T09:00:27.142Z,15.7
2018-12-19T09:01:29.566Z,15.5
2018-12-19T09:02:31.463Z,15.7
2018-12-19T09:03:33.626Z,15.7
2018-12-19T09:04:35.781Z,15.7
2018-12-19T09:05:38.217Z,15.6
2018-12-19T09:06:40.671Z,15.6
2018-12-19T09:07:43.289Z,15.6
2018-12-19T09:08:45.730Z,15.6
2018-12-19T09:09:48.171Z,15.6
2018-12-19T09:10:50.317Z,15.6
2018-12-19T09:11:52.484Z,15.7
2018-12-19T09:12:54.913Z,15.5
2018-12-19T09:13:57.339Z,15.7
2018-12-19T09:15:01.045Z,15.7
2018-12-19T09:16:03.460Z,15.5
2018-12-19T09:17:05.613Z,15.6
2018-12-19T09:18:07.762Z,15.7
2018-12-19T09:19:10.179Z,15.6
2018-12-19T09:20:12.341Z,15.7
2018-12-19T09:21:14.510Z,15.7
2018-12-19T09:22:16.656Z,15.6
2018-12-19T09:23:19.074Z,15.7
2018-12-19T09:24:21.215Z,15.5
2018-12-19T09:25:23.634Z,15.7
2018-12-19T09:26:25.799Z,15.7
2018-12-19T09:27:27.975Z,15.6
2018-12-19T09:28:30.130Z,15.7
2018-12-19T09:29:32.280Z,15.7
2018-12-19T09:30:34.710Z,15.7
2018-12-19T09:31:36.857Z,15.6
2018-12-19T09:32:39.271Z,15.7
2018-12-19T09:33:41.466Z,15.6
2018-12-19T09:34:43.882Z,15.6
2018-12-19T09:35:46.310Z,15.6
2018-12-19T09:36:48.727Z,15.5
2018-12-19T09:37:50.601Z,15.7
2018-12-19T09:38:52.487Z,15.7
2018-12-19T09:39:54.661Z,15.7
2018-12-19T09:40:56.829Z,15.6
2018-12-19T09:41:58.981Z,15.7
2018-12-19T09:43:01.146Z,15.7
2018-12-19T09:44:03.021Z,15.6
2018-12-19T09:45:05.507Z,15.6
2018-12-19T09:46:07.709Z,15.7
2018-12-19T09:47:10.133Z,15.6
2018-12-19T09:48:12.276Z,15.5
2018-12-19T09:49:14.691Z,15.7
2018-12-19T09:50:17.108Z,15.5
2018-12-19T09:51:19.255Z,15.6
2018-12-19T09:52:21.679Z,15.5
2018-12-19T09:53:24.095Z,15.6
2018-12-19T09:54:26.245Z,15.7
2018-12-19T09:55:28.662Z,15.6
2018-12-19T09:56:31.092Z,15.8
2018-12-19T09:57:32.674Z,15.6
2018-12-19T09:58:35.097Z,15.5
2018-12-19T09:59:37.257Z,15.6
2018-12-19T10:00:39.426Z,15.6
2018-12-19T10:01:41.282Z,15.7
2018-12-19T10:02:43.700Z,15.7
2018-12-19T10:03:45.857Z,15.5
2018-12-19T10:04:48.340Z,15.8
2018-12-19T10:05:50.563Z,15.5
2018-12-19T10:06:52.706Z,15.6
2018-12-19T10:09:26.333Z,15.7
2018-12-19T10:10:28.765Z,15.4
2018-12-19T10:11:31.192Z,15.6
2018-12-19T10:12:33.615Z,15.7
2018-12-19T10:13:35.821Z,15.5
2018-12-19T10:14:37.697Z,15.6
2018-12-19T10:15:39.838Z,15.6
2018-12-19T10:16:42.284Z,15.5
2018-12-19T10:17:44.715Z,15.6
2018-12-19T10:18:47.141Z,15.7
2018-12-19T10:19:49.561Z,15.6
2018-12-19T10:20:51.999Z,15.7
2018-12-19T10:21:54.156Z,15.6
2018-12-19T10:22:56.578Z,15.7
2018-12-19T10:23:59.027Z,15.4
2018-12-19T10:25:01.214Z,15.7
2018-12-19T10:26:03.373Z,15.5
2018-12-19T10:27:05.802Z,15.5
2018-12-19T10:28:08.251Z,15.4
2018-12-19T10:29:10.118Z,15.5
2018-12-19T10:30:12.557Z,15.5
2018-12-19T10:31:15.016Z,15.4
2018-12-19T10:32:17.148Z,15.5
2018-12-19T10:33:19.569Z,15.6
2018-12-19T10:34:22.004Z,15.7
2018-12-19T10:35:23.885Z,15.4
2018-12-19T10:36:26.062Z,15.6
2018-12-19T10:37:28.244Z,15.7
2018-12-19T10:38:30.749Z,15.6
2018-12-19T10:39:32.341Z,15.5
2018-12-19T10:40:34.767Z,15.6
2018-12-19T10:41:37.195Z,15.7
2018-12-19T10:42:39.624Z,15.8
2018-12-19T10:43:42.316Z,15.5
2018-12-19T10:44:44.737Z,15.6
2018-12-19T10:45:46.887Z,15.7
2018-12-19T10:46:49.319Z,15.6
2018-12-19T10:47:51.473Z,15.5
2018-12-19T10:48:53.804Z,15.6
2018-12-19T10:49:55.689Z,15.7
2018-12-19T10:50:58.118Z,15.6
2018-12-19T10:52:00.302Z,15.4
2018-12-19T10:53:02.732Z,15.5
2018-12-19T10:54:04.900Z,15.3
2018-12-19T10:55:07.074Z,15.6
2018-12-19T10:56:09.508Z,15.7
2018-12-19T10:57:11.939Z,15.6
2018-12-19T10:58:14.152Z,15.7
2018-12-19T10:59:16.586Z,15.5
2018-12-19T11:00:19.002Z,15.6
2018-12-19T11:01:21.202Z,15.6
2018-12-19T11:02:23.344Z,15.5
2018-12-19T11:03:25.191Z,15.5
2018-12-19T11:04:27.627Z,15.5
2018-12-19T11:05:30.040Z,15.7
2018-12-19T11:06:32.465Z,15.6
2018-12-19T11:07:34.892Z,15.6
2018-12-19T11:08:37.322Z,15.5
2018-12-19T11:09:39.745Z,15.6
2018-12-19T11:10:41.880Z,15.6
2018-12-19T11:11:44.326Z,15.7
2018-12-19T11:12:46.692Z,15.6
2018-12-19T11:13:49.123Z,15.7
2018-12-19T11:14:51.562Z,15.5
2018-12-19T11:15:53.992Z,15.6
2018-12-19T11:16:56.433Z,15.6
2018-12-19T11:17:58.874Z,15.6
2018-12-19T11:19:01.312Z,15.6
2018-12-19T11:20:03.744Z,15.7
2018-12-19T11:21:06.176Z,15.5
2018-12-19T11:22:08.602Z,15.5
2018-12-19T11:23:10.761Z,15.6
2018-12-19T11:24:12.644Z,15.8
2018-12-19T11:25:14.521Z,15.5
2018-12-19T11:26:16.669Z,15.6
2018-12-19T11:27:18.830Z,15.5
2018-12-19T11:28:20.963Z,15.6
2018-12-19T11:29:23.450Z,15.6
2018-12-19T11:30:25.392Z,15.5
2018-12-19T11:31:27.262Z,15.5
2018-12-19T11:32:29.160Z,15.6
2018-12-19T11:33:31.344Z,15.4
2018-12-19T11:34:32.663Z,15.6
2018-12-19T11:35:34.823Z,15.7
2018-12-19T11:36:37.250Z,15.6
2018-12-19T11:37:39.439Z,15.6
2018-12-19T11:38:41.866Z,15.6
2018-12-19T11:39:44.015Z,15.6
2018-12-19T11:40:46.480Z,15.7
2018-12-19T11:41:48.961Z,15.6
2018-12-19T11:42:51.131Z,15.5
2018-12-19T11:43:53.315Z,15.6
2018-12-19T11:44:56.883Z,15.5
2018-12-19T11:45:59.084Z,15.4
2018-12-19T11:47:00.954Z,15.6
2018-12-19T11:48:03.120Z,15.8
2018-12-19T11:49:05.543Z,15.6
2018-12-19T11:50:07.958Z,15.6
2018-12-19T11:51:10.106Z,15.6
2018-12-19T11:52:12.538Z,15.6
2018-12-19T11:53:14.958Z,15.6
2018-12-19T11:54:17.125Z,15.6
2018-12-19T11:55:19.288Z,15.5
2018-12-19T11:56:21.448Z,15.5
2018-12-19T11:57:23.912Z,15.6
2018-12-19T11:58:26.432Z,15.6
2018-12-19T11:59:28.015Z,15.5
2018-12-19T12:00:30.190Z,15.4
2018-12-19T12:01:32.611Z,15.4
2018-12-19T12:02:35.036Z,15.5
2018-12-19T12:03:37.462Z,15.5
2018-12-19T12:04:39.594Z,15.5
2018-12-19T12:05:42.086Z,15.7
2018-12-19T12:06:44.546Z,15.6
2018-12-19T12:07:46.973Z,15.6
2018-12-19T12:08:49.115Z,15.6
2018-12-19T12:09:51.541Z,15.6
2018-12-19T12:10:53.972Z,15.5
2018-12-19T12:11:56.396Z,15.6
2018-12-19T12:12:58.544Z,15.6
2018-12-19T12:14:00.972Z,15.4
2018-12-19T12:15:03.404Z,15.5
2018-12-19T12:16:05.559Z,15.6
2018-12-19T12:17:08.780Z,15.6
2018-12-19T12:18:11.224Z,15.5
2018-12-19T12:19:13.104Z,15.6
2018-12-19T12:20:15.553Z,15.4
2018-12-19T12:21:17.972Z,15.7
2018-12-19T12:22:20.119Z,15.6
2018-12-19T12:23:22.539Z,15.4
2018-12-19T12:24:24.976Z,15.7
2018-12-19T12:25:27.409Z,15.6
2018-12-19T12:26:29.847Z,15.6
2018-12-19T12:27:32.275Z,15.4
2018-12-19T12:28:34.418Z,15.6
2018-12-19T12:29:36.580Z,15.6
2018-12-19T12:30:39.025Z,15.6
2018-12-19T12:31:41.472Z,15.7
2018-12-19T12:32:43.903Z,15.5
2018-12-19T12:33:46.338Z,15.4
2018-12-19T12:34:48.775Z,15.6
2018-12-19T12:35:51.206Z,15.5
2018-12-19T12:36:53.639Z,15.5
2018-12-19T12:37:56.060Z,15.5
2018-12-19T12:38:58.517Z,15.6
2018-12-19T12:40:00.932Z,15.5
2018-12-19T12:41:03.087Z,15.7
2018-12-19T12:42:05.524Z,15.7
2018-12-19T12:43:07.968Z,15.6
2018-12-19T12:44:10.393Z,15.6
2018-12-19T12:45:12.815Z,15.5
2018-12-19T12:46:15.245Z,15.4
2018-12-19T12:47:17.662Z,15.5
2018-12-19T12:48:19.811Z,15.7
2018-12-19T12:49:22.250Z,15.5
2018-12-19T12:50:24.691Z,15.5
2018-12-19T12:51:27.134Z,15.6
2018-12-19T12:52:29.554Z,15.6
2018-12-19T12:53:31.677Z,15.6
2018-12-19T12:54:33.864Z,15.5
2018-12-19T12:55:36.283Z,15.4
2018-12-19T12:56:38.438Z,15.8
2018-12-19T12:57:40.604Z,15.7
2018-12-19T12:58:43.035Z,15.5
2018-12-19T12:59:45.462Z,15.5
2018-12-19T13:00:47.603Z,15.7
2018-12-19T13:01:49.750Z,15.5
2018-12-19T13:02:52.190Z,15.6
2018-12-19T13:03:54.634Z,15.7
2018-12-19T13:04:56.248Z,15.7
2018-12-19T13:05:58.392Z,15.7
2018-12-19T13:07:00.527Z,15.5
2018-12-19T13:08:02.164Z,15.6
2018-12-19T13:09:04.582Z,15.5
2018-12-19T13:10:07.031Z,15.4
2018-12-19T13:11:09.466Z,15.6
2018-12-19T13:12:11.624Z,15.7
2018-12-19T13:13:14.047Z,15.4
2018-12-19T13:14:15.650Z,15.5
2018-12-19T13:15:18.092Z,15.5
2018-12-19T13:16:20.223Z,15.4
2018-12-19T13:17:22.371Z,15.4
2018-12-19T13:18:24.527Z,15.5
2018-12-19T13:19:26.693Z,15.6
2018-12-19T13:20:29.141Z,15.4
2018-12-19T13:21:31.581Z,15.4
2018-12-19T13:22:34.014Z,15.6
2018-12-19T13:23:36.161Z,15.4
2018-12-19T13:24:38.061Z,15.6
2018-12-19T13:25:40.514Z,15.5
2018-12-19T13:26:42.948Z,15.4
2018-12-19T13:27:45.106Z,15.7
2018-12-19T13:28:47.533Z,15.6
2018-12-19T13:29:49.711Z,15.7
2018-12-19T13:30:51.583Z,15.7
2018-12-19T13:31:53.465Z,15.6
2018-12-19T13:32:55.598Z,15.4
2018-12-19T13:33:57.760Z,15.5
2018-12-19T13:34:59.941Z,15.6
2018-12-19T13:36:02.106Z,15.6
2018-12-19T13:37:04.535Z,15.5
2018-12-19T13:38:06.740Z,15.3
2018-12-19T13:39:08.898Z,15.5
2018-12-19T13:40:11.321Z,15.7
2018-12-19T13:41:13.746Z,15.5
2018-12-19T13:42:15.902Z,15.5
2018-12-19T13:43:18.053Z,15.4
2018-12-19T13:44:20.500Z,15.6
2018-12-19T13:45:22.630Z,15.4
2018-12-19T13:46:25.066Z,15.6
2018-12-19T13:47:27.223Z,15.6
2018-12-19T13:48:29.654Z,15.5
2018-12-19T13:49:31.814Z,15.5
2018-12-19T13:50:34.237Z,15.5
2018-12-19T13:51:36.392Z,15.6
2018-12-19T13:52:38.826Z,15.5
2018-12-19T13:53:41.272Z,15.4
2018-12-19T13:54:43.695Z,15.4
2018-12-19T13:55:46.135Z,15.5
2018-12-19T13:56:48.277Z,15.6
2018-12-19T13:57:50.711Z,15.5